sensor_id;sensor_type;location;lat;lon;timestamp;P1;durP1;ratioP1;P2;durP2;ratioP2
75038;SDS011;63609;49.992;14.512;2023-12-20T00:02:02;5.35;;;2.40;;
75038;SDS011;63609;49.992;14.512;2023-12-20T00:04:29;3.95;;;2.25;;
75038;SDS011;63609;49.992;14.512;2023-12-20T00:06:56;4.07;;;2.33;;
75038;SDS011;63609;49.992;14.512;2023-12-20T00:09:23;4.10;;;2.35;;
75038;SDS011;63609;49.992;14.512;2023-12-20T00:11:49;4.40;;;2.30;;
75038;SDS011;63609;49.992;14.512;2023-12-20T00:16:43;4.00;;;2.17;;
75038;SDS011;63609;49.992;14.512;2023-12-20T00:19:10;2.55;;;1.75;;
75038;SDS011;63609;49.992;14.512;2023-12-20T00:21:37;4.43;;;2.17;;
75038;SDS011;63609;49.992;14.512;2023-12-20T00:24:04;2.97;;;2.00;;
75038;SDS011;63609;49.992;14.512;2023-12-20T00:26:31;4.10;;;2.42;;
75038;SDS011;63609;49.992;14.512;2023-12-20T00:28:57;2.90;;;1.52;;
75038;SDS011;63609;49.992;14.512;2023-12-20T00:31:24;5.90;;;2.92;;
75038;SDS011;63609;49.992;14.512;2023-12-20T00:33:51;3.97;;;1.92;;
75038;SDS011;63609;49.992;14.512;2023-12-20T00:36:18;4.60;;;2.40;;
75038;SDS011;63609;49.992;14.512;2023-12-20T00:38:45;4.28;;;2.72;;
75038;SDS011;63609;49.992;14.512;2023-12-20T00:43:39;4.50;;;2.08;;
75038;SDS011;63609;49.992;14.512;2023-12-20T00:46:06;3.90;;;2.35;;
75038;SDS011;63609;49.992;14.512;2023-12-20T00:50:59;5.28;;;2.55;;
75038;SDS011;63609;49.992;14.512;2023-12-20T00:55:53;4.28;;;2.53;;
75038;SDS011;63609;49.992;14.512;2023-12-20T00:58:20;4.78;;;2.67;;
75038;SDS011;63609;49.992;14.512;2023-12-20T01:03:31;4.57;;;2.13;;
75038;SDS011;63609;49.992;14.512;2023-12-20T01:05:58;6.07;;;2.95;;
75038;SDS011;63609;49.992;14.512;2023-12-20T01:08:24;6.03;;;2.97;;
75038;SDS011;63609;49.992;14.512;2023-12-20T01:13:18;4.25;;;2.60;;
75038;SDS011;63609;49.992;14.512;2023-12-20T01:15:45;3.97;;;2.53;;
75038;SDS011;63609;49.992;14.512;2023-12-20T01:18:12;4.07;;;2.72;;
75038;SDS011;63609;49.992;14.512;2023-12-20T01:20:40;3.65;;;2.38;;
75038;SDS011;63609;49.992;14.512;2023-12-20T01:23:06;6.55;;;3.20;;
75038;SDS011;63609;49.992;14.512;2023-12-20T01:28:00;8.75;;;3.00;;
75038;SDS011;63609;49.992;14.512;2023-12-20T01:32:53;4.05;;;2.67;;
75038;SDS011;63609;49.992;14.512;2023-12-20T01:35:20;4.55;;;2.50;;
75038;SDS011;63609;49.992;14.512;2023-12-20T01:37:47;5.82;;;3.58;;
75038;SDS011;63609;49.992;14.512;2023-12-20T01:40:14;6.60;;;3.40;;
75038;SDS011;63609;49.992;14.512;2023-12-20T01:42:41;5.03;;;3.22;;
75038;SDS011;63609;49.992;14.512;2023-12-20T01:47:35;5.45;;;2.83;;
75038;SDS011;63609;49.992;14.512;2023-12-20T01:50:03;5.32;;;3.00;;
75038;SDS011;63609;49.992;14.512;2023-12-20T01:52:30;6.50;;;2.90;;
75038;SDS011;63609;49.992;14.512;2023-12-20T01:55:00;6.28;;;3.63;;
75038;SDS011;63609;49.992;14.512;2023-12-20T01:57:29;5.40;;;2.95;;
75038;SDS011;63609;49.992;14.512;2023-12-20T01:59:57;6.20;;;2.95;;
75038;SDS011;63609;49.992;14.512;2023-12-20T02:02:25;5.82;;;3.00;;
75038;SDS011;63609;49.992;14.512;2023-12-20T02:04:53;5.72;;;3.63;;
75038;SDS011;63609;49.992;14.512;2023-12-20T02:07:21;6.68;;;3.67;;
75038;SDS011;63609;49.992;14.512;2023-12-20T02:09:49;6.25;;;3.13;;
75038;SDS011;63609;49.992;14.512;2023-12-20T02:12:16;5.43;;;3.67;;
75038;SDS011;63609;49.992;14.512;2023-12-20T02:17:09;6.28;;;3.15;;
75038;SDS011;63609;49.992;14.512;2023-12-20T02:22:07;9.13;;;3.25;;
75038;SDS011;63609;49.992;14.512;2023-12-20T02:24:35;3.97;;;2.58;;
75038;SDS011;63609;49.992;14.512;2023-12-20T02:29:29;5.50;;;2.38;;
75038;SDS011;63609;49.992;14.512;2023-12-20T02:31:55;9.98;;;4.82;;
75038;SDS011;63609;49.992;14.512;2023-12-20T02:36:49;7.88;;;3.80;;
75038;SDS011;63609;49.992;14.512;2023-12-20T02:41:43;5.15;;;2.92;;
75038;SDS011;63609;49.992;14.512;2023-12-20T02:46:36;7.63;;;3.53;;
75038;SDS011;63609;49.992;14.512;2023-12-20T02:51:29;6.05;;;3.30;;
75038;SDS011;63609;49.992;14.512;2023-12-20T02:53:56;7.03;;;3.67;;
75038;SDS011;63609;49.992;14.512;2023-12-20T02:58:50;5.18;;;3.20;;
75038;SDS011;63609;49.992;14.512;2023-12-20T03:03:43;7.07;;;4.28;;
75038;SDS011;63609;49.992;14.512;2023-12-20T03:08:37;4.00;;;2.40;;
75038;SDS011;63609;49.992;14.512;2023-12-20T03:11:05;7.22;;;3.65;;
75038;SDS011;63609;49.992;14.512;2023-12-20T03:13:31;4.00;;;2.60;;
75038;SDS011;63609;49.992;14.512;2023-12-20T03:15:58;6.05;;;3.45;;
75038;SDS011;63609;49.992;14.512;2023-12-20T03:20:54;4.88;;;2.92;;
75038;SDS011;63609;49.992;14.512;2023-12-20T03:25:47;6.68;;;3.25;;
75038;SDS011;63609;49.992;14.512;2023-12-20T03:28:14;7.05;;;3.38;;
75038;SDS011;63609;49.992;14.512;2023-12-20T03:30:42;4.20;;;2.78;;
75038;SDS011;63609;49.992;14.512;2023-12-20T03:33:09;6.22;;;3.22;;
75038;SDS011;63609;49.992;14.512;2023-12-20T03:35:36;6.75;;;3.55;;
75038;SDS011;63609;49.992;14.512;2023-12-20T03:38:03;7.00;;;3.47;;
75038;SDS011;63609;49.992;14.512;2023-12-20T03:40:30;7.15;;;3.63;;
75038;SDS011;63609;49.992;14.512;2023-12-20T03:42:57;6.78;;;4.35;;
75038;SDS011;63609;49.992;14.512;2023-12-20T03:45:24;5.07;;;2.78;;
75038;SDS011;63609;49.992;14.512;2023-12-20T03:47:51;5.95;;;3.88;;
75038;SDS011;63609;49.992;14.512;2023-12-20T03:50:25;5.20;;;3.65;;
75038;SDS011;63609;49.992;14.512;2023-12-20T03:52:52;6.25;;;3.08;;
75038;SDS011;63609;49.992;14.512;2023-12-20T03:55:19;4.57;;;2.50;;
75038;SDS011;63609;49.992;14.512;2023-12-20T04:00:13;5.10;;;3.97;;
75038;SDS011;63609;49.992;14.512;2023-12-20T04:02:40;5.18;;;2.60;;
75038;SDS011;63609;49.992;14.512;2023-12-20T04:05:08;5.85;;;2.85;;
75038;SDS011;63609;49.992;14.512;2023-12-20T04:07:36;4.90;;;2.95;;
75038;SDS011;63609;49.992;14.512;2023-12-20T04:10:03;5.30;;;3.33;;
75038;SDS011;63609;49.992;14.512;2023-12-20T04:12:31;5.75;;;3.03;;
75038;SDS011;63609;49.992;14.512;2023-12-20T04:14:58;4.75;;;3.30;;
75038;SDS011;63609;49.992;14.512;2023-12-20T04:19:51;5.50;;;2.95;;
75038;SDS011;63609;49.992;14.512;2023-12-20T04:22:18;4.50;;;2.70;;
75038;SDS011;63609;49.992;14.512;2023-12-20T04:24:46;5.45;;;3.33;;
75038;SDS011;63609;49.992;14.512;2023-12-20T04:29:39;3.88;;;2.22;;
75038;SDS011;63609;49.992;14.512;2023-12-20T04:32:06;4.82;;;3.15;;
75038;SDS011;63609;49.992;14.512;2023-12-20T04:34:33;6.03;;;3.33;;
75038;SDS011;63609;49.992;14.512;2023-12-20T04:39:28;4.95;;;2.60;;
75038;SDS011;63609;49.992;14.512;2023-12-20T04:41:55;4.43;;;2.30;;
75038;SDS011;63609;49.992;14.512;2023-12-20T04:44:22;5.93;;;2.85;;
75038;SDS011;63609;49.992;14.512;2023-12-20T04:46:49;4.20;;;2.67;;
75038;SDS011;63609;49.992;14.512;2023-12-20T04:49:15;5.03;;;2.85;;
75038;SDS011;63609;49.992;14.512;2023-12-20T04:51:42;5.82;;;2.33;;
75038;SDS011;63609;49.992;14.512;2023-12-20T04:56:37;5.05;;;3.13;;
75038;SDS011;63609;49.992;14.512;2023-12-20T05:01:30;5.93;;;3.38;;
75038;SDS011;63609;49.992;14.512;2023-12-20T05:06:24;6.30;;;3.72;;
75038;SDS011;63609;49.992;14.512;2023-12-20T05:08:51;5.85;;;2.97;;
75038;SDS011;63609;49.992;14.512;2023-12-20T05:13:44;4.65;;;2.58;;
75038;SDS011;63609;49.992;14.512;2023-12-20T05:16:16;4.85;;;2.47;;
75038;SDS011;63609;49.992;14.512;2023-12-20T05:18:45;5.55;;;3.22;;
75038;SDS011;63609;49.992;14.512;2023-12-20T05:21:14;5.60;;;3.13;;
75038;SDS011;63609;49.992;14.512;2023-12-20T05:23:41;4.93;;;2.45;;
75038;SDS011;63609;49.992;14.512;2023-12-20T05:26:08;5.13;;;2.85;;
75038;SDS011;63609;49.992;14.512;2023-12-20T05:31:02;3.53;;;2.47;;
75038;SDS011;63609;49.992;14.512;2023-12-20T05:33:29;5.22;;;2.88;;
75038;SDS011;63609;49.992;14.512;2023-12-20T05:35:55;4.10;;;1.92;;
75038;SDS011;63609;49.992;14.512;2023-12-20T05:40:49;4.45;;;2.28;;
75038;SDS011;63609;49.992;14.512;2023-12-20T05:45:43;3.78;;;1.80;;
75038;SDS011;63609;49.992;14.512;2023-12-20T05:48:10;6.15;;;3.00;;
75038;SDS011;63609;49.992;14.512;2023-12-20T05:50:37;2.22;;;1.80;;
75038;SDS011;63609;49.992;14.512;2023-12-20T05:53:03;4.82;;;2.28;;
75038;SDS011;63609;49.992;14.512;2023-12-20T05:57:57;4.53;;;2.80;;
75038;SDS011;63609;49.992;14.512;2023-12-20T06:00:24;4.55;;;2.20;;
75038;SDS011;63609;49.992;14.512;2023-12-20T06:02:52;7.32;;;2.78;;
75038;SDS011;63609;49.992;14.512;2023-12-20T06:05:19;4.53;;;2.15;;
75038;SDS011;63609;49.992;14.512;2023-12-20T06:07:46;6.68;;;3.15;;
75038;SDS011;63609;49.992;14.512;2023-12-20T06:10:15;12.10;;;2.67;;
75038;SDS011;63609;49.992;14.512;2023-12-20T06:12:43;4.18;;;2.45;;
75038;SDS011;63609;49.992;14.512;2023-12-20T06:15:10;5.60;;;2.30;;
75038;SDS011;63609;49.992;14.512;2023-12-20T06:17:37;4.07;;;2.38;;
75038;SDS011;63609;49.992;14.512;2023-12-20T06:20:04;3.63;;;1.90;;
75038;SDS011;63609;49.992;14.512;2023-12-20T06:22:35;2.75;;;1.73;;
75038;SDS011;63609;49.992;14.512;2023-12-20T06:25:02;3.22;;;1.70;;
75038;SDS011;63609;49.992;14.512;2023-12-20T06:27:30;4.07;;;2.13;;
75038;SDS011;63609;49.992;14.512;2023-12-20T06:29:58;2.97;;;2.10;;
75038;SDS011;63609;49.992;14.512;2023-12-20T06:32:25;2.42;;;1.55;;
75038;SDS011;63609;49.992;14.512;2023-12-20T06:34:52;2.75;;;1.77;;
75038;SDS011;63609;49.992;14.512;2023-12-20T06:37:19;3.55;;;1.70;;
75038;SDS011;63609;49.992;14.512;2023-12-20T06:39:46;3.33;;;2.00;;
75038;SDS011;63609;49.992;14.512;2023-12-20T06:42:13;2.92;;;1.70;;
75038;SDS011;63609;49.992;14.512;2023-12-20T06:44:40;1.90;;;1.35;;
75038;SDS011;63609;49.992;14.512;2023-12-20T06:47:08;4.10;;;1.90;;
75038;SDS011;63609;49.992;14.512;2023-12-20T06:49:36;2.90;;;1.48;;
75038;SDS011;63609;49.992;14.512;2023-12-20T06:52:03;2.20;;;1.48;;
75038;SDS011;63609;49.992;14.512;2023-12-20T06:54:30;2.22;;;1.17;;
75038;SDS011;63609;49.992;14.512;2023-12-20T06:59:25;4.78;;;1.67;;
75038;SDS011;63609;49.992;14.512;2023-12-20T07:01:52;2.45;;;1.60;;
75038;SDS011;63609;49.992;14.512;2023-12-20T07:04:19;3.20;;;1.63;;
75038;SDS011;63609;49.992;14.512;2023-12-20T07:06:48;2.17;;;1.52;;
75038;SDS011;63609;49.992;14.512;2023-12-20T07:09:18;3.78;;;1.83;;
75038;SDS011;63609;49.992;14.512;2023-12-20T07:11:45;3.75;;;1.55;;
75038;SDS011;63609;49.992;14.512;2023-12-20T07:14:12;2.45;;;1.25;;
75038;SDS011;63609;49.992;14.512;2023-12-20T07:16:39;2.20;;;1.38;;
75038;SDS011;63609;49.992;14.512;2023-12-20T07:19:06;2.40;;;1.45;;
75038;SDS011;63609;49.992;14.512;2023-12-20T07:21:34;1.45;;;0.95;;
75038;SDS011;63609;49.992;14.512;2023-12-20T07:24:01;3.35;;;1.77;;
75038;SDS011;63609;49.992;14.512;2023-12-20T07:26:28;1.45;;;0.90;;
75038;SDS011;63609;49.992;14.512;2023-12-20T07:28:55;3.17;;;1.27;;
75038;SDS011;63609;49.992;14.512;2023-12-20T07:31:22;2.40;;;1.70;;
75038;SDS011;63609;49.992;14.512;2023-12-20T07:33:51;3.03;;;1.85;;
75038;SDS011;63609;49.992;14.512;2023-12-20T07:36:19;2.60;;;1.20;;
75038;SDS011;63609;49.992;14.512;2023-12-20T07:38:47;2.55;;;1.48;;
75038;SDS011;63609;49.992;14.512;2023-12-20T07:43:42;4.07;;;1.73;;
75038;SDS011;63609;49.992;14.512;2023-12-20T07:48:36;2.08;;;1.17;;
75038;SDS011;63609;49.992;14.512;2023-12-20T07:51:04;2.67;;;1.33;;
75038;SDS011;63609;49.992;14.512;2023-12-20T07:53:33;2.42;;;1.38;;
75038;SDS011;63609;49.992;14.512;2023-12-20T07:56:01;2.00;;;1.17;;
75038;SDS011;63609;49.992;14.512;2023-12-20T07:58:28;2.67;;;1.27;;
75038;SDS011;63609;49.992;14.512;2023-12-20T08:01:11;2.38;;;1.67;;
75038;SDS011;63609;49.992;14.512;2023-12-20T08:03:38;2.35;;;1.92;;
75038;SDS011;63609;49.992;14.512;2023-12-20T08:06:05;1.35;;;0.90;;
75038;SDS011;63609;49.992;14.512;2023-12-20T08:08:33;3.08;;;1.52;;
75038;SDS011;63609;49.992;14.512;2023-12-20T08:11:00;1.45;;;1.05;;
75038;SDS011;63609;49.992;14.512;2023-12-20T08:13:27;2.40;;;1.30;;
75038;SDS011;63609;49.992;14.512;2023-12-20T08:15:54;1.52;;;0.85;;
75038;SDS011;63609;49.992;14.512;2023-12-20T08:18:22;1.77;;;0.77;;
75038;SDS011;63609;49.992;14.512;2023-12-20T08:20:50;1.77;;;1.08;;
75038;SDS011;63609;49.992;14.512;2023-12-20T08:23:19;2.25;;;1.20;;
75038;SDS011;63609;49.992;14.512;2023-12-20T08:25:50;2.40;;;1.23;;
75038;SDS011;63609;49.992;14.512;2023-12-20T08:28:18;2.33;;;1.00;;
75038;SDS011;63609;49.992;14.512;2023-12-20T08:30:45;2.17;;;1.23;;
75038;SDS011;63609;49.992;14.512;2023-12-20T08:33:12;1.50;;;0.95;;
75038;SDS011;63609;49.992;14.512;2023-12-20T08:35:39;1.23;;;0.73;;
75038;SDS011;63609;49.992;14.512;2023-12-20T08:38:07;2.22;;;1.13;;
75038;SDS011;63609;49.992;14.512;2023-12-20T08:40:34;2.72;;;1.30;;
75038;SDS011;63609;49.992;14.512;2023-12-20T08:43:02;1.83;;;1.00;;
75038;SDS011;63609;49.992;14.512;2023-12-20T08:45:29;1.73;;;1.00;;
75038;SDS011;63609;49.992;14.512;2023-12-20T08:47:56;5.78;;;1.30;;
75038;SDS011;63609;49.992;14.512;2023-12-20T08:50:27;1.33;;;0.80;;
75038;SDS011;63609;49.992;14.512;2023-12-20T08:52:54;2.03;;;1.17;;
75038;SDS011;63609;49.992;14.512;2023-12-20T08:55:21;1.17;;;0.90;;
75038;SDS011;63609;49.992;14.512;2023-12-20T08:57:48;1.58;;;1.02;;
75038;SDS011;63609;49.992;14.512;2023-12-20T09:00:16;1.73;;;1.08;;
75038;SDS011;63609;49.992;14.512;2023-12-20T09:02:44;1.92;;;1.08;;
75038;SDS011;63609;49.992;14.512;2023-12-20T09:07:37;1.85;;;1.08;;
75038;SDS011;63609;49.992;14.512;2023-12-20T09:10:05;1.20;;;0.90;;
75038;SDS011;63609;49.992;14.512;2023-12-20T09:12:32;1.20;;;0.98;;
75038;SDS011;63609;49.992;14.512;2023-12-20T09:14:59;0.93;;;0.65;;
75038;SDS011;63609;49.992;14.512;2023-12-20T09:17:29;2.05;;;1.00;;
75038;SDS011;63609;49.992;14.512;2023-12-20T09:19:56;2.35;;;1.00;;
75038;SDS011;63609;49.992;14.512;2023-12-20T09:22:23;1.40;;;1.02;;
75038;SDS011;63609;49.992;14.512;2023-12-20T09:24:50;2.97;;;1.00;;
75038;SDS011;63609;49.992;14.512;2023-12-20T09:27:17;1.45;;;0.95;;
75038;SDS011;63609;49.992;14.512;2023-12-20T09:29:44;1.60;;;1.10;;
75038;SDS011;63609;49.992;14.512;2023-12-20T09:32:12;1.80;;;0.80;;
75038;SDS011;63609;49.992;14.512;2023-12-20T09:37:06;2.58;;;1.40;;
75038;SDS011;63609;49.992;14.512;2023-12-20T09:39:34;1.70;;;1.02;;
75038;SDS011;63609;49.992;14.512;2023-12-20T09:42:04;1.42;;;1.00;;
75038;SDS011;63609;49.992;14.512;2023-12-20T09:44:33;1.40;;;0.90;;
75038;SDS011;63609;49.992;14.512;2023-12-20T09:47:03;2.13;;;1.20;;
75038;SDS011;63609;49.992;14.512;2023-12-20T09:49:31;2.60;;;1.15;;
75038;SDS011;63609;49.992;14.512;2023-12-20T09:52:00;1.33;;;0.98;;
75038;SDS011;63609;49.992;14.512;2023-12-20T09:54:28;2.20;;;1.52;;
75038;SDS011;63609;49.992;14.512;2023-12-20T09:56:56;2.50;;;1.30;;
75038;SDS011;63609;49.992;14.512;2023-12-20T09:59:23;1.40;;;1.00;;
75038;SDS011;63609;49.992;14.512;2023-12-20T10:04:21;1.60;;;0.95;;
75038;SDS011;63609;49.992;14.512;2023-12-20T10:06:55;1.83;;;1.23;;
75038;SDS011;63609;49.992;14.512;2023-12-20T10:09:24;2.42;;;1.05;;
75038;SDS011;63609;49.992;14.512;2023-12-20T10:11:53;2.78;;;1.70;;
75038;SDS011;63609;49.992;14.512;2023-12-20T10:14:21;2.08;;;1.50;;
75038;SDS011;63609;49.992;14.512;2023-12-20T10:16:50;2.65;;;1.63;;
75038;SDS011;63609;49.992;14.512;2023-12-20T10:19:17;2.38;;;1.13;;
75038;SDS011;63609;49.992;14.512;2023-12-20T10:21:47;1.80;;;1.27;;
75038;SDS011;63609;49.992;14.512;2023-12-20T10:24:17;3.92;;;1.58;;
75038;SDS011;63609;49.992;14.512;2023-12-20T10:26:44;2.38;;;1.35;;
75038;SDS011;63609;49.992;14.512;2023-12-20T10:31:38;1.13;;;0.90;;
75038;SDS011;63609;49.992;14.512;2023-12-20T10:34:05;2.33;;;1.05;;
75038;SDS011;63609;49.992;14.512;2023-12-20T10:36:33;1.40;;;0.93;;
75038;SDS011;63609;49.992;14.512;2023-12-20T10:39:00;1.90;;;0.80;;
75038;SDS011;63609;49.992;14.512;2023-12-20T10:41:29;1.33;;;0.82;;
75038;SDS011;63609;49.992;14.512;2023-12-20T10:43:59;2.05;;;1.17;;
75038;SDS011;63609;49.992;14.512;2023-12-20T10:46:27;1.67;;;0.80;;
75038;SDS011;63609;49.992;14.512;2023-12-20T10:48:58;1.50;;;1.00;;
75038;SDS011;63609;49.992;14.512;2023-12-20T10:51:28;2.33;;;0.70;;
75038;SDS011;63609;49.992;14.512;2023-12-20T10:53:56;1.52;;;0.88;;
75038;SDS011;63609;49.992;14.512;2023-12-20T10:56:23;1.00;;;0.80;;
75038;SDS011;63609;49.992;14.512;2023-12-20T10:58:50;1.92;;;0.90;;
75038;SDS011;63609;49.992;14.512;2023-12-20T11:01:18;1.85;;;0.90;;
75038;SDS011;63609;49.992;14.512;2023-12-20T11:03:50;1.40;;;0.88;;
75038;SDS011;63609;49.992;14.512;2023-12-20T11:17:17;1.73;;;0.70;;
75038;SDS011;63609;49.992;14.512;2023-12-20T11:20:06;0.90;;;0.77;;
75038;SDS011;63609;49.992;14.512;2023-12-20T11:22:33;1.33;;;0.93;;
75038;SDS011;63609;49.992;14.512;2023-12-20T11:27:41;1.35;;;0.90;;
75038;SDS011;63609;49.992;14.512;2023-12-20T11:30:15;1.27;;;0.93;;
75038;SDS011;63609;49.992;14.512;2023-12-20T11:32:45;1.45;;;0.90;;
75038;SDS011;63609;49.992;14.512;2023-12-20T11:35:17;1.10;;;0.70;;
75038;SDS011;63609;49.992;14.512;2023-12-20T11:37:46;2.28;;;1.20;;
75038;SDS011;63609;49.992;14.512;2023-12-20T11:40:15;1.65;;;0.82;;
75038;SDS011;63609;49.992;14.512;2023-12-20T11:42:48;1.58;;;1.10;;
75038;SDS011;63609;49.992;14.512;2023-12-20T11:45:17;0.90;;;0.68;;
75038;SDS011;63609;49.992;14.512;2023-12-20T11:47:48;2.38;;;0.98;;
75038;SDS011;63609;49.992;14.512;2023-12-20T11:50:17;1.75;;;1.17;;
75038;SDS011;63609;49.992;14.512;2023-12-20T11:52:45;0.90;;;0.60;;
75038;SDS011;63609;49.992;14.512;2023-12-20T11:55:12;2.30;;;1.08;;
75038;SDS011;63609;49.992;14.512;2023-12-20T11:57:39;2.05;;;0.98;;
75038;SDS011;63609;49.992;14.512;2023-12-20T12:00:07;2.40;;;1.00;;
75038;SDS011;63609;49.992;14.512;2023-12-20T12:02:38;2.45;;;1.00;;
75038;SDS011;63609;49.992;14.512;2023-12-20T12:07:33;1.48;;;0.73;;
75038;SDS011;63609;49.992;14.512;2023-12-20T12:10:01;1.10;;;0.75;;
75038;SDS011;63609;49.992;14.512;2023-12-20T12:12:30;1.73;;;1.20;;
75038;SDS011;63609;49.992;14.512;2023-12-20T12:14:59;1.95;;;1.13;;
75038;SDS011;63609;49.992;14.512;2023-12-20T12:17:26;1.80;;;1.20;;
75038;SDS011;63609;49.992;14.512;2023-12-20T12:20:01;2.15;;;1.20;;
75038;SDS011;63609;49.992;14.512;2023-12-20T12:22:32;1.77;;;1.20;;
75038;SDS011;63609;49.992;14.512;2023-12-20T12:25:08;1.38;;;1.02;;
75038;SDS011;63609;49.992;14.512;2023-12-20T12:27:37;3.35;;;1.52;;
75038;SDS011;63609;49.992;14.512;2023-12-20T12:30:06;2.20;;;1.40;;
75038;SDS011;63609;49.992;14.512;2023-12-20T12:32:36;1.70;;;0.95;;
75038;SDS011;63609;49.992;14.512;2023-12-20T12:35:04;1.63;;;0.93;;
75038;SDS011;63609;49.992;14.512;2023-12-20T12:37:35;4.50;;;1.33;;
75038;SDS011;63609;49.992;14.512;2023-12-20T12:40:15;1.65;;;1.00;;
75038;SDS011;63609;49.992;14.512;2023-12-20T12:42:43;2.33;;;1.48;;
75038;SDS011;63609;49.992;14.512;2023-12-20T12:45:11;1.92;;;1.20;;
75038;SDS011;63609;49.992;14.512;2023-12-20T12:47:39;3.72;;;1.17;;
75038;SDS011;63609;49.992;14.512;2023-12-20T12:50:07;3.35;;;1.10;;
75038;SDS011;63609;49.992;14.512;2023-12-20T12:52:34;2.00;;;0.93;;
75038;SDS011;63609;49.992;14.512;2023-12-20T12:55:02;1.60;;;1.13;;
75038;SDS011;63609;49.992;14.512;2023-12-20T12:57:31;3.40;;;1.27;;
75038;SDS011;63609;49.992;14.512;2023-12-20T12:59:58;2.10;;;1.30;;
75038;SDS011;63609;49.992;14.512;2023-12-20T13:02:25;2.22;;;1.45;;
75038;SDS011;63609;49.992;14.512;2023-12-20T13:07:19;4.35;;;1.50;;
75038;SDS011;63609;49.992;14.512;2023-12-20T13:09:46;2.00;;;1.30;;
75038;SDS011;63609;49.992;14.512;2023-12-20T13:14:40;2.92;;;0.95;;
75038;SDS011;63609;49.992;14.512;2023-12-20T13:17:07;1.83;;;1.23;;
75038;SDS011;63609;49.992;14.512;2023-12-20T13:22:01;0.82;;;0.60;;
75038;SDS011;63609;49.992;14.512;2023-12-20T13:26:55;1.52;;;1.23;;
75038;SDS011;63609;49.992;14.512;2023-12-20T13:29:23;1.88;;;1.00;;
75038;SDS011;63609;49.992;14.512;2023-12-20T13:31:54;2.35;;;0.98;;
75038;SDS011;63609;49.992;14.512;2023-12-20T13:34:21;2.45;;;1.05;;
75038;SDS011;63609;49.992;14.512;2023-12-20T13:36:48;1.80;;;0.98;;
75038;SDS011;63609;49.992;14.512;2023-12-20T13:39:17;2.67;;;0.90;;
75038;SDS011;63609;49.992;14.512;2023-12-20T13:41:44;1.52;;;0.75;;
75038;SDS011;63609;49.992;14.512;2023-12-20T13:44:11;1.52;;;0.80;;
75038;SDS011;63609;49.992;14.512;2023-12-20T13:46:39;1.10;;;0.80;;
75038;SDS011;63609;49.992;14.512;2023-12-20T13:49:07;1.63;;;1.00;;
75038;SDS011;63609;49.992;14.512;2023-12-20T13:51:34;2.33;;;1.00;;
75038;SDS011;63609;49.992;14.512;2023-12-20T13:54:01;3.22;;;1.33;;
75038;SDS011;63609;49.992;14.512;2023-12-20T13:56:28;2.83;;;1.40;;
75038;SDS011;63609;49.992;14.512;2023-12-20T14:01:22;2.90;;;1.45;;
75038;SDS011;63609;49.992;14.512;2023-12-20T14:03:50;1.42;;;0.90;;
75038;SDS011;63609;49.992;14.512;2023-12-20T14:06:17;3.72;;;1.05;;
75038;SDS011;63609;49.992;14.512;2023-12-20T14:08:44;1.30;;;0.93;;
75038;SDS011;63609;49.992;14.512;2023-12-20T14:11:11;1.38;;;0.70;;
75038;SDS011;63609;49.992;14.512;2023-12-20T14:13:38;0.88;;;0.60;;
75038;SDS011;63609;49.992;14.512;2023-12-20T14:16:05;2.25;;;1.38;;
75038;SDS011;63609;49.992;14.512;2023-12-20T14:18:32;2.40;;;1.00;;
75038;SDS011;63609;49.992;14.512;2023-12-20T14:20:59;1.85;;;1.00;;
75038;SDS011;63609;49.992;14.512;2023-12-20T14:23:27;2.35;;;1.10;;
75038;SDS011;63609;49.992;14.512;2023-12-20T14:25:54;1.40;;;0.88;;
75038;SDS011;63609;49.992;14.512;2023-12-20T14:28:23;2.13;;;0.90;;
75038;SDS011;63609;49.992;14.512;2023-12-20T14:30:49;1.80;;;0.98;;
75038;SDS011;63609;49.992;14.512;2023-12-20T14:33:17;3.13;;;1.15;;
75038;SDS011;63609;49.992;14.512;2023-12-20T14:35:46;1.10;;;0.70;;
75038;SDS011;63609;49.992;14.512;2023-12-20T14:38:13;3.13;;;1.00;;
75038;SDS011;63609;49.992;14.512;2023-12-20T14:40:41;1.80;;;1.13;;
75038;SDS011;63609;49.992;14.512;2023-12-20T14:43:08;2.00;;;1.23;;
75038;SDS011;63609;49.992;14.512;2023-12-20T14:45:35;2.60;;;1.23;;
75038;SDS011;63609;49.992;14.512;2023-12-20T14:50:29;2.53;;;1.00;;
75038;SDS011;63609;49.992;14.512;2023-12-20T14:55:23;2.47;;;1.20;;
75038;SDS011;63609;49.992;14.512;2023-12-20T14:57:49;3.00;;;0.85;;
75038;SDS011;63609;49.992;14.512;2023-12-20T15:00:17;2.95;;;2.17;;
75038;SDS011;63609;49.992;14.512;2023-12-20T15:02:45;3.22;;;1.90;;
75038;SDS011;63609;49.992;14.512;2023-12-20T15:05:12;2.63;;;1.33;;
75038;SDS011;63609;49.992;14.512;2023-12-20T15:07:40;1.40;;;1.05;;
75038;SDS011;63609;49.992;14.512;2023-12-20T15:10:07;2.22;;;1.20;;
75038;SDS011;63609;49.992;14.512;2023-12-20T15:12:35;3.42;;;1.42;;
75038;SDS011;63609;49.992;14.512;2023-12-20T15:15:01;2.08;;;1.25;;
75038;SDS011;63609;49.992;14.512;2023-12-20T15:17:29;1.98;;;1.00;;
75038;SDS011;63609;49.992;14.512;2023-12-20T15:19:56;1.70;;;1.20;;
75038;SDS011;63609;49.992;14.512;2023-12-20T15:22:23;1.70;;;1.00;;
75038;SDS011;63609;49.992;14.512;2023-12-20T15:24:50;1.27;;;1.08;;
75038;SDS011;63609;49.992;14.512;2023-12-20T15:27:18;2.10;;;0.82;;
75038;SDS011;63609;49.992;14.512;2023-12-20T15:29:48;1.13;;;0.60;;
75038;SDS011;63609;49.992;14.512;2023-12-20T15:32:17;3.28;;;1.15;;
75038;SDS011;63609;49.992;14.512;2023-12-20T15:34:47;2.38;;;0.90;;
75038;SDS011;63609;49.992;14.512;2023-12-20T15:37:14;8.25;;;1.48;;
75038;SDS011;63609;49.992;14.512;2023-12-20T15:39:41;3.33;;;1.15;;
75038;SDS011;63609;49.992;14.512;2023-12-20T15:42:09;2.28;;;1.10;;
75038;SDS011;63609;49.992;14.512;2023-12-20T15:44:36;1.83;;;1.10;;
75038;SDS011;63609;49.992;14.512;2023-12-20T15:47:03;1.38;;;0.85;;
75038;SDS011;63609;49.992;14.512;2023-12-20T15:51:56;3.60;;;1.55;;
75038;SDS011;63609;49.992;14.512;2023-12-20T15:54:23;1.92;;;1.42;;
75038;SDS011;63609;49.992;14.512;2023-12-20T15:56:50;2.00;;;1.27;;
75038;SDS011;63609;49.992;14.512;2023-12-20T15:59:17;1.90;;;1.20;;
75038;SDS011;63609;49.992;14.512;2023-12-20T16:01:45;2.20;;;1.20;;
75038;SDS011;63609;49.992;14.512;2023-12-20T16:04:20;1.13;;;0.85;;
75038;SDS011;63609;49.992;14.512;2023-12-20T16:06:47;2.03;;;1.00;;
75038;SDS011;63609;49.992;14.512;2023-12-20T16:09:15;3.60;;;1.20;;
75038;SDS011;63609;49.992;14.512;2023-12-20T16:11:42;2.95;;;1.02;;
75038;SDS011;63609;49.992;14.512;2023-12-20T16:14:10;1.17;;;0.82;;
75038;SDS011;63609;49.992;14.512;2023-12-20T16:16:42;2.25;;;1.42;;
75038;SDS011;63609;49.992;14.512;2023-12-20T16:19:09;1.75;;;1.02;;
75038;SDS011;63609;49.992;14.512;2023-12-20T16:21:36;2.17;;;1.38;;
75038;SDS011;63609;49.992;14.512;2023-12-20T16:24:03;2.50;;;1.42;;
75038;SDS011;63609;49.992;14.512;2023-12-20T16:26:30;2.38;;;1.00;;
75038;SDS011;63609;49.992;14.512;2023-12-20T16:28:57;3.53;;;1.00;;
75038;SDS011;63609;49.992;14.512;2023-12-20T16:33:51;1.58;;;0.98;;
75038;SDS011;63609;49.992;14.512;2023-12-20T16:36:17;1.80;;;0.98;;
75038;SDS011;63609;49.992;14.512;2023-12-20T16:41:11;2.25;;;1.30;;
75038;SDS011;63609;49.992;14.512;2023-12-20T16:46:04;2.60;;;1.30;;
75038;SDS011;63609;49.992;14.512;2023-12-20T16:48:32;1.90;;;1.20;;
75038;SDS011;63609;49.992;14.512;2023-12-20T16:50:59;2.78;;;1.38;;
75038;SDS011;63609;49.992;14.512;2023-12-20T16:53:27;3.42;;;1.42;;
75038;SDS011;63609;49.992;14.512;2023-12-20T16:55:54;4.10;;;1.73;;
75038;SDS011;63609;49.992;14.512;2023-12-20T16:58:21;4.50;;;2.03;;